Time;durP1;ratioP1;P1;durP2;ratioP2;P2;SDS_P1;SDS_P2;PMS_P1;PMS_P2;Temp;Humidity;BMP_temperature;BMP_pressure;BME280_temperature;BME280_humidity;BME280_pressure;Samples;Min_cycle;Max_cycle;Signal;HPM_P1;HPM_P2
2020/09/25 00:01:30;;;;;;;1.52;1.42;;;;;;;20.98;66.16;98875.08;;;;-47
2020/09/25 00:04:30;;;;;;;1.69;1.35;;;;;;;20.98;66.15;98869.41;;;;-47
2020/09/25 00:07:30;;;;;;;1.62;1.31;;;;;;;20.98;66.13;98863.77;;;;-47
2020/09/25 00:10:30;;;;;;;2.13;1.30;;;;;;;20.96;66.14;98857.97;;;;-47
2020/09/25 00:13:30;;;;;;;2.21;1.50;;;;;;;20.95;66.16;98861.95;;;;-48
2020/09/25 00:16:30;;;;;;;1.50;1.40;;;;;;;20.95;66.19;98855.55;;;;-47
2020/09/25 00:19:30;;;;;;;1.58;1.41;;;;;;;20.93;66.12;98848.16;;;;-47
2020/09/25 00:22:30;;;;;;;1.76;1.29;;;;;;;20.93;66.17;98847.86;;;;-47
2020/09/25 00:25:30;;;;;;;2.07;1.49;;;;;;;20.92;66.20;98838.53;;;;-47
2020/09/25 00:28:30;;;;;;;2.72;1.40;;;;;;;20.92;66.11;98832.75;;;;-47
2020/09/25 00:31:30;;;;;;;1.48;1.20;;;;;;;20.92;66.17;98827.28;;;;-48
2020/09/25 00:34:30;;;;;;;1.97;1.33;;;;;;;20.91;66.20;98824.06;;;;-47
2020/09/25 00:37:30;;;;;;;1.41;1.31;;;;;;;20.91;66.16;98826.16;;;;-47
2020/09/25 00:40:30;;;;;;;1.59;1.35;;;;;;;20.90;66.24;98826.78;;;;-47
2020/09/25 00:43:30;;;;;;;2.04;1.39;;;;;;;20.89;66.17;98815.47;;;;-47
2020/09/25 00:46:30;;;;;;;1.57;1.34;;;;;;;20.89;66.18;98820.91;;;;-47
2020/09/25 00:49:30;;;;;;;1.61;1.37;;;;;;;20.88;66.15;98813.53;;;;-48
2020/09/25 00:52:30;;;;;;;1.43;1.33;;;;;;;20.88;66.22;98806.95;;;;-47
2020/09/25 00:55:30;;;;;;;1.50;1.30;;;;;;;20.88;66.14;98803.87;;;;-47
2020/09/25 00:58:30;;;;;;;2.07;1.29;;;;;;;20.86;66.26;98801.23;;;;-47
2020/09/25 01:01:30;;;;;;;1.41;1.27;;;;;;;20.86;66.26;98804.48;;;;-47
2020/09/25 01:04:30;;;;;;;1.33;1.23;;;;;;;20.85;66.21;98802.84;;;;-47
2020/09/25 01:07:30;;;;;;;2.50;1.40;;;;;;;20.86;66.17;98796.59;;;;-47
2020/09/25 01:10:30;;;;;;;1.61;1.20;;;;;;;20.85;66.12;98790.73;;;;-47
2020/09/25 01:13:30;;;;;;;1.44;1.30;;;;;;;20.85;66.17;98788.47;;;;-48
2020/09/25 01:16:30;;;;;;;2.15;1.40;;;;;;;20.84;66.22;98794.75;;;;-47
2020/09/25 01:19:30;;;;;;;2.47;1.30;;;;;;;20.84;66.21;98792.40;;;;-47
2020/09/25 01:22:30;;;;;;;1.32;1.22;;;;;;;20.83;66.21;98796.87;;;;-47
2020/09/25 01:25:30;;;;;;;1.38;1.28;;;;;;;20.83;66.20;98790.38;;;;-47
2020/09/25 01:28:30;;;;;;;1.96;1.35;;;;;;;20.83;66.27;98801.78;;;;-47
2020/09/25 01:31:30;;;;;;;1.33;1.20;;;;;;;20.83;66.16;98803.02;;;;-47
2020/09/25 01:34:30;;;;;;;1.25;1.15;;;;;;;20.82;66.21;98797.57;;;;-48
2020/09/25 01:37:30;;;;;;;1.33;1.23;;;;;;;20.82;66.22;98791.22;;;;-48
2020/09/25 01:40:30;;;;;;;1.43;1.33;;;;;;;20.82;66.17;98787.27;;;;-47
2020/09/25 01:43:30;;;;;;;1.71;1.32;;;;;;;20.82;66.29;98785.45;;;;-47
2020/09/25 01:46:30;;;;;;;1.83;1.20;;;;;;;20.81;66.17;98778.69;;;;-47
2020/09/25 01:49:30;;;;;;;1.73;1.30;;;;;;;20.81;66.25;98776.92;;;;-48
2020/09/25 01:52:30;;;;;;;1.35;1.25;;;;;;;20.79;66.32;98786.07;;;;-47
2020/09/25 01:55:30;;;;;;;1.30;1.20;;;;;;;20.79;66.27;98785.84;;;;-47
2020/09/25 01:58:31;;;;;;;1.30;1.20;;;;;;;20.80;66.22;98787.22;;;;-47
2020/09/25 02:01:30;;;;;;;1.30;1.20;;;;;;;20.79;66.23;98798.80;;;;-47
2020/09/25 02:04:30;;;;;;;1.30;1.20;;;;;;;20.79;66.23;98802.86;;;;-48
2020/09/25 02:07:30;;;;;;;1.53;1.32;;;;;;;20.78;66.29;98806.48;;;;-47
2020/09/25 02:10:30;;;;;;;1.55;1.20;;;;;;;20.78;66.24;98816.48;;;;-47
2020/09/25 02:13:31;;;;;;;1.35;1.25;;;;;;;20.78;66.28;98824.72;;;;-47
2020/09/25 02:16:30;;;;;;;1.33;1.22;;;;;;;20.77;66.25;98833.11;;;;-48
2020/09/25 02:19:30;;;;;;;1.37;1.10;;;;;;;20.78;66.25;98838.07;;;;-47
2020/09/25 02:22:30;;;;;;;1.45;1.30;;;;;;;20.77;66.27;98844.27;;;;-47
2020/09/25 02:25:30;;;;;;;1.28;1.18;;;;;;;20.76;66.28;98853.41;;;;-47
2020/09/25 02:28:30;;;;;;;1.30;1.20;;;;;;;20.76;66.28;98849.75;;;;-47
2020/09/25 02:31:30;;;;;;;1.57;1.20;;;;;;;20.75;66.28;98845.62;;;;-47
2020/09/25 02:34:30;;;;;;;1.75;1.33;;;;;;;20.75;66.25;98851.55;;;;-47
2020/09/25 02:37:30;;;;;;;1.43;1.33;;;;;;;20.75;66.16;98841.72;;;;-47
2020/09/25 02:40:30;;;;;;;1.63;1.21;;;;;;;20.75;66.22;98845.04;;;;-47
2020/09/25 02:43:30;;;;;;;1.49;1.27;;;;;;;20.74;66.20;98838.16;;;;-47
2020/09/25 02:46:30;;;;;;;2.15;1.30;;;;;;;20.74;66.29;98838.24;;;;-47
2020/09/25 02:49:30;;;;;;;1.40;1.30;;;;;;;20.74;66.25;98852.50;;;;-47
2020/09/25 02:52:30;;;;;;;1.37;1.27;;;;;;;20.73;66.26;98869.45;;;;-47
2020/09/25 02:55:30;;;;;;;1.17;1.10;;;;;;;20.73;66.25;98876.52;;;;-47
2020/09/25 02:58:30;;;;;;;1.31;1.21;;;;;;;20.73;66.22;98878.63;;;;-47
2020/09/25 03:01:30;;;;;;;1.22;1.13;;;;;;;20.72;66.23;98870.27;;;;-47
2020/09/25 03:04:34;;;;;;;1.55;1.20;;;;;;;20.72;66.18;98869.05;;;;-47
2020/09/25 03:07:30;;;;;;;1.29;1.19;;;;;;;20.73;66.22;98868.95;;;;-47
2020/09/25 03:10:30;;;;;;;1.43;1.20;;;;;;;20.72;66.26;98868.48;;;;-48
2020/09/25 03:13:30;;;;;;;1.62;1.25;;;;;;;20.71;66.25;98872.50;;;;-48
2020/09/25 03:16:30;;;;;;;1.30;1.20;;;;;;;20.70;66.24;98866.00;;;;-48
2020/09/25 03:19:30;;;;;;;1.29;1.19;;;;;;;20.70;66.26;98872.70;;;;-47
2020/09/25 03:22:30;;;;;;;1.18;1.09;;;;;;;20.68;66.26;98882.33;;;;-47
2020/09/25 03:25:30;;;;;;;1.70;1.20;;;;;;;20.70;66.25;98886.05;;;;-47
2020/09/25 03:28:30;;;;;;;1.30;1.20;;;;;;;20.69;66.23;98888.01;;;;-47
2020/09/25 03:31:30;;;;;;;2.07;1.20;;;;;;;20.68;66.27;98877.77;;;;-47
2020/09/25 03:34:30;;;;;;;1.53;1.30;;;;;;;20.68;66.21;98869.23;;;;-47
2020/09/25 03:37:30;;;;;;;1.41;1.10;;;;;;;20.69;66.23;98863.27;;;;-47
2020/09/25 03:40:30;;;;;;;1.37;1.26;;;;;;;20.67;66.24;98866.16;;;;-48
2020/09/25 03:43:30;;;;;;;1.71;1.13;;;;;;;20.68;66.22;98863.79;;;;-47
2020/09/25 03:46:30;;;;;;;1.11;1.05;;;;;;;20.67;66.25;98871.47;;;;-47
2020/09/25 03:49:30;;;;;;;1.29;1.19;;;;;;;20.67;66.28;98867.00;;;;-49
2020/09/25 03:52:30;;;;;;;1.33;1.19;;;;;;;20.67;66.23;98864.46;;;;-47
2020/09/25 03:55:30;;;;;;;1.32;1.15;;;;;;;20.67;66.21;98856.80;;;;-48
2020/09/25 03:58:30;;;;;;;1.17;1.11;;;;;;;20.66;66.24;98866.98;;;;-47
2020/09/25 04:01:30;;;;;;;1.23;1.13;;;;;;;20.67;66.20;98870.64;;;;-47
2020/09/25 04:04:30;;;;;;;1.24;1.14;;;;;;;20.65;66.25;98865.16;;;;-47
2020/09/25 04:07:30;;;;;;;1.30;1.20;;;;;;;20.65;66.24;98869.71;;;;-47
2020/09/25 04:10:30;;;;;;;1.13;1.10;;;;;;;20.65;66.21;98871.60;;;;-47
2020/09/25 04:13:30;;;;;;;1.16;1.07;;;;;;;20.65;66.25;98885.50;;;;-47
2020/09/25 04:16:30;;;;;;;1.71;1.09;;;;;;;20.65;66.23;98899.67;;;;-46
2020/09/25 04:19:30;;;;;;;2.01;1.25;;;;;;;20.64;66.20;98905.94;;;;-47
2020/09/25 04:22:30;;;;;;;1.25;1.09;;;;;;;20.64;66.24;98895.63;;;;-47
2020/09/25 04:25:30;;;;;;;1.30;1.20;;;;;;;20.64;66.27;98897.42;;;;-47
2020/09/25 04:28:30;;;;;;;1.23;1.13;;;;;;;20.63;66.26;98899.48;;;;-47
2020/09/25 04:31:30;;;;;;;1.17;1.10;;;;;;;20.64;66.24;98892.86;;;;-48
2020/09/25 04:34:30;;;;;;;1.41;1.17;;;;;;;20.63;66.25;98895.41;;;;-47
2020/09/25 04:37:31;;;;;;;1.20;1.10;;;;;;;20.62;66.21;98894.13;;;;-47
2020/09/25 04:40:30;;;;;;;1.19;1.09;;;;;;;20.62;66.22;98892.64;;;;-47
2020/09/25 04:43:30;;;;;;;1.19;1.10;;;;;;;20.62;66.20;98893.70;;;;-47
2020/09/25 04:46:30;;;;;;;1.20;1.10;;;;;;;20.62;66.22;98891.28;;;;-47
2020/09/25 04:49:30;;;;;;;1.19;1.09;;;;;;;20.61;66.23;98886.98;;;;-47
2020/09/25 04:52:30;;;;;;;1.48;1.19;;;;;;;20.61;66.21;98886.19;;;;-48
2020/09/25 04:55:30;;;;;;;1.18;1.10;;;;;;;20.61;66.22;98886.02;;;;-47
2020/09/25 04:58:30;;;;;;;1.19;1.10;;;;;;;20.61;66.29;98885.44;;;;-48
2020/09/25 05:01:30;;;;;;;1.23;1.09;;;;;;;20.60;66.26;98889.36;;;;-47
2020/09/25 05:04:30;;;;;;;1.24;1.14;;;;;;;20.60;66.27;98888.29;;;;-48
2020/09/25 05:07:30;;;;;;;1.22;1.12;;;;;;;20.59;66.23;98883.68;;;;-47
2020/09/25 05:10:30;;;;;;;1.23;1.16;;;;;;;20.59;66.22;98881.41;;;;-47
2020/09/25 05:13:30;;;;;;;1.17;1.10;;;;;;;20.59;66.27;98886.95;;;;-47
2020/09/25 05:16:30;;;;;;;1.30;1.20;;;;;;;20.59;66.24;98861.89;;;;-47
2020/09/25 05:19:30;;;;;;;1.11;1.10;;;;;;;20.58;66.25;98883.04;;;;-47
2020/09/25 05:22:30;;;;;;;1.50;1.10;;;;;;;20.59;66.23;98905.34;;;;-47
2020/09/25 05:25:30;;;;;;;0.97;0.96;;;;;;;20.58;66.22;98910.55;;;;-48
2020/09/25 05:28:30;;;;;;;1.25;1.16;;;;;;;20.58;66.22;98908.75;;;;-47
2020/09/25 05:31:30;;;;;;;1.13;1.03;;;;;;;20.58;66.24;98906.24;;;;-47
2020/09/25 05:34:30;;;;;;;1.25;1.15;;;;;;;20.58;66.27;98912.10;;;;-47
2020/09/25 05:37:30;;;;;;;1.23;1.13;;;;;;;20.58;66.21;98918.22;;;;-47
2020/09/25 05:40:30;;;;;;;0.97;0.97;;;;;;;20.57;66.26;98918.64;;;;-47
2020/09/25 05:43:30;;;;;;;1.21;1.03;;;;;;;20.57;66.24;98924.83;;;;-47
2020/09/25 05:46:30;;;;;;;1.15;1.07;;;;;;;20.57;66.26;98919.69;;;;-47
2020/09/25 05:49:30;;;;;;;1.21;1.11;;;;;;;20.56;66.25;98908.86;;;;-48
2020/09/25 05:52:30;;;;;;;0.97;0.97;;;;;;;20.56;66.23;98901.63;;;;-47
2020/09/25 05:55:30;;;;;;;1.44;1.12;;;;;;;20.56;66.19;98895.05;;;;-47
2020/09/25 05:58:30;;;;;;;1.53;1.15;;;;;;;20.55;66.24;98898.00;;;;-47
2020/09/25 06:01:30;;;;;;;1.15;1.11;;;;;;;20.55;66.18;98898.00;;;;-47
2020/09/25 06:04:30;;;;;;;1.11;1.00;;;;;;;20.56;66.20;98891.14;;;;-48
2020/09/25 06:07:30;;;;;;;1.16;1.08;;;;;;;20.55;66.20;98883.51;;;;-47
2020/09/25 06:10:30;;;;;;;1.15;1.09;;;;;;;20.55;66.19;98876.67;;;;-47
2020/09/25 06:13:30;;;;;;;1.05;1.05;;;;;;;20.55;66.17;98878.06;;;;-47
2020/09/25 06:16:30;;;;;;;1.19;1.09;;;;;;;20.54;66.22;98897.03;;;;-48
2020/09/25 06:19:30;;;;;;;1.17;1.07;;;;;;;20.54;66.21;98894.12;;;;-47
2020/09/25 06:22:30;;;;;;;0.97;0.97;;;;;;;20.53;66.23;98896.16;;;;-47
2020/09/25 06:25:30;;;;;;;1.11;1.01;;;;;;;20.54;66.18;98904.20;;;;-47
2020/09/25 06:28:30;;;;;;;1.02;1.01;;;;;;;20.53;66.19;98899.42;;;;-48
2020/09/25 06:31:30;;;;;;;1.15;1.05;;;;;;;20.54;66.17;98894.36;;;;-47
2020/09/25 06:34:30;;;;;;;1.03;1.03;;;;;;;20.53;66.14;98894.39;;;;-48
2020/09/25 06:37:30;;;;;;;1.01;0.98;;;;;;;20.53;66.20;98893.51;;;;-47
2020/09/25 06:40:30;;;;;;;1.15;1.09;;;;;;;20.53;66.15;98889.02;;;;-48
2020/09/25 06:43:30;;;;;;;0.97;0.93;;;;;;;20.52;66.20;98895.94;;;;-47
2020/09/25 06:46:30;;;;;;;1.16;1.08;;;;;;;20.52;66.17;98901.23;;;;-47
2020/09/25 06:49:30;;;;;;;1.13;1.11;;;;;;;20.51;66.23;98905.50;;;;-47
2020/09/25 06:52:30;;;;;;;1.10;1.03;;;;;;;20.51;66.17;98903.55;;;;-46
2020/09/25 06:55:30;;;;;;;1.13;1.03;;;;;;;20.51;66.18;98904.95;;;;-47
2020/09/25 06:58:30;;;;;;;1.00;1.00;;;;;;;20.51;66.14;98900.62;;;;-48
2020/09/25 07:01:30;;;;;;;1.13;1.00;;;;;;;20.50;66.14;98896.90;;;;-48
2020/09/25 07:04:30;;;;;;;1.00;1.00;;;;;;;20.49;66.11;98884.61;;;;-48
2020/09/25 07:07:30;;;;;;;1.21;1.11;;;;;;;20.50;66.13;98905.04;;;;-48
2020/09/25 07:10:30;;;;;;;1.01;1.00;;;;;;;20.51;66.13;98920.41;;;;-48
2020/09/25 07:13:30;;;;;;;1.10;1.00;;;;;;;20.49;66.17;98925.39;;;;-48
2020/09/25 07:16:30;;;;;;;0.90;0.90;;;;;;;20.49;66.16;98934.11;;;;-50
2020/09/25 07:19:30;;;;;;;1.25;1.03;;;;;;;20.49;66.15;98930.45;;;;-49
2020/09/25 07:22:30;;;;;;;0.91;0.91;;;;;;;20.49;66.12;98925.73;;;;-48
2020/09/25 07:25:30;;;;;;;0.98;0.98;;;;;;;20.48;66.09;98925.33;;;;-48
2020/09/25 07:28:30;;;;;;;0.98;0.98;;;;;;;20.48;66.15;98913.70;;;;-48
2020/09/25 07:31:30;;;;;;;1.71;1.10;;;;;;;20.48;66.12;98896.04;;;;-48
2020/09/25 07:34:30;;;;;;;1.20;1.10;;;;;;;20.48;66.09;98891.73;;;;-48
2020/09/25 07:37:30;;;;;;;1.13;1.03;;;;;;;20.48;66.12;98896.68;;;;-49
2020/09/25 07:40:30;;;;;;;2.00;1.10;;;;;;;20.49;66.11;98901.21;;;;-49
2020/09/25 07:43:30;;;;;;;2.05;1.12;;;;;;;20.50;66.19;98905.02;;;;-51
2020/09/25 07:46:30;;;;;;;1.56;1.11;;;;;;;20.49;66.37;98904.80;;;;-52
2020/09/25 07:49:30;;;;;;;1.06;1.00;;;;;;;20.51;66.55;98907.70;;;;-51
2020/09/25 07:52:30;;;;;;;1.03;1.00;;;;;;;20.52;66.60;98921.98;;;;-50
2020/09/25 07:55:30;;;;;;;1.11;1.08;;;;;;;20.53;66.66;98932.88;;;;-54
2020/09/25 07:58:30;;;;;;;1.27;1.10;;;;;;;20.54;66.66;98945.80;;;;-48
2020/09/25 08:01:30;;;;;;;1.29;1.01;;;;;;;20.56;66.67;98943.05;;;;-51
2020/09/25 08:04:30;;;;;;;1.03;1.03;;;;;;;20.58;66.68;98945.62;;;;-53
2020/09/25 08:07:30;;;;;;;5.34;1.09;;;;;;;20.59;66.63;98953.20;;;;-52
2020/09/25 08:10:30;;;;;;;0.90;0.90;;;;;;;20.61;66.69;98959.01;;;;-48
2020/09/25 08:13:30;;;;;;;1.02;0.96;;;;;;;20.61;66.72;98965.28;;;;-53
2020/09/25 08:16:30;;;;;;;1.23;1.00;;;;;;;20.62;66.73;98964.52;;;;-51
2020/09/25 08:19:30;;;;;;;1.31;0.98;;;;;;;20.64;66.87;98961.61;;;;-53
2020/09/25 08:22:30;;;;;;;1.50;1.00;;;;;;;20.65;66.71;98961.12;;;;-49
2020/09/25 08:25:30;;;;;;;2.28;1.13;;;;;;;20.66;66.79;98956.52;;;;-50
2020/09/25 08:28:30;;;;;;;2.22;1.12;;;;;;;20.67;66.72;98957.00;;;;-51
2020/09/25 08:31:30;;;;;;;3.00;1.20;;;;;;;20.69;66.80;98959.47;;;;-53
2020/09/25 08:34:30;;;;;;;3.13;1.10;;;;;;;20.69;66.62;98967.30;;;;-51
2020/09/25 08:37:30;;;;;;;2.43;1.15;;;;;;;20.68;66.66;98971.77;;;;-51
2020/09/25 08:40:30;;;;;;;3.39;1.17;;;;;;;20.67;66.67;98972.63;;;;-51
2020/09/25 08:43:30;;;;;;;3.01;1.15;;;;;;;20.67;66.59;98963.60;;;;-52
2020/09/25 08:46:30;;;;;;;1.13;1.05;;;;;;;20.66;66.53;98965.56;;;;-53
2020/09/25 08:49:30;;;;;;;2.27;0.98;;;;;;;20.65;66.54;98960.16;;;;-52
2020/09/25 08:52:30;;;;;;;2.13;1.05;;;;;;;20.65;66.47;98956.58;;;;-51
2020/09/25 08:55:30;;;;;;;1.19;0.99;;;;;;;20.64;66.43;98962.09;;;;-52
2020/09/25 08:58:30;;;;;;;4.57;1.27;;;;;;;20.65;66.40;98961.78;;;;-46
2020/09/25 09:01:30;;;;;;;3.00;1.19;;;;;;;20.67;66.39;98965.37;;;;-47
2020/09/25 09:04:30;;;;;;;3.52;1.31;;;;;;;20.68;66.45;98953.00;;;;-60
2020/09/25 09:07:30;;;;;;;2.46;1.10;;;;;;;20.68;66.44;98943.23;;;;-48
2020/09/25 09:10:30;;;;;;;3.97;1.01;;;;;;;20.69;66.34;98941.08;;;;-49
2020/09/25 09:13:31;;;;;;;3.09;1.08;;;;;;;20.70;66.35;98933.00;;;;-51
2020/09/25 09:16:30;;;;;;;3.19;1.20;;;;;;;20.71;66.30;98941.45;;;;-50
2020/09/25 09:19:30;;;;;;;1.83;1.17;;;;;;;20.72;66.32;98940.30;;;;-51
2020/09/25 09:22:30;;;;;;;3.99;1.20;;;;;;;20.72;66.27;98932.72;;;;-52
2020/09/25 09:25:30;;;;;;;3.29;1.32;;;;;;;20.72;66.30;98932.86;;;;-54
2020/09/25 09:28:30;;;;;;;2.70;1.19;;;;;;;20.73;66.24;98939.28;;;;-52
2020/09/25 09:31:30;;;;;;;2.67;1.15;;;;;;;20.73;66.26;98933.27;;;;-55
2020/09/25 09:34:30;;;;;;;2.23;1.10;;;;;;;20.72;66.24;98937.52;;;;-54
2020/09/25 09:37:30;;;;;;;4.38;1.20;;;;;;;20.74;66.24;98952.30;;;;-55
2020/09/25 09:40:30;;;;;;;2.85;1.29;;;;;;;20.75;66.25;98960.64;;;;-53
2020/09/25 09:43:30;;;;;;;1.67;1.09;;;;;;;20.75;66.22;98960.31;;;;-52
2020/09/25 09:46:30;;;;;;;3.35;1.29;;;;;;;20.75;66.21;98949.00;;;;-54
2020/09/25 09:49:30;;;;;;;1.89;1.09;;;;;;;20.76;66.25;98944.44;;;;-51
2020/09/25 09:52:36;;;;;;;2.55;1.28;;;;;;;20.76;66.19;98938.16;;;;-52
2020/09/25 09:55:30;;;;;;;2.76;1.19;;;;;;;20.76;66.20;98938.23;;;;-51
2020/09/25 09:58:30;;;;;;;2.19;1.05;;;;;;;20.76;66.15;98935.53;;;;-50
2020/09/25 10:01:30;;;;;;;3.75;1.30;;;;;;;20.77;66.02;98927.71;;;;-50
2020/09/25 10:04:30;;;;;;;3.44;1.16;;;;;;;20.78;66.06;98910.27;;;;-55
2020/09/25 10:07:30;;;;;;;1.30;1.10;;;;;;;20.78;66.10;98908.64;;;;-57
2020/09/25 10:10:30;;;;;;;3.12;1.07;;;;;;;20.78;66.05;98910.03;;;;-55
2020/09/25 10:13:30;;;;;;;2.37;1.12;;;;;;;20.78;66.05;98905.30;;;;-52
2020/09/25 10:16:30;;;;;;;1.11;1.01;;;;;;;20.79;65.98;98899.73;;;;-54
2020/09/25 10:19:30;;;;;;;2.35;1.11;;;;;;;20.78;65.94;98903.58;;;;-54
2020/09/25 10:22:30;;;;;;;3.57;1.23;;;;;;;20.80;65.95;98898.92;;;;-58
2020/09/25 10:25:30;;;;;;;3.83;1.30;;;;;;;20.80;65.92;98889.38;;;;-51
2020/09/25 10:28:30;;;;;;;2.21;1.20;;;;;;;20.79;65.94;98897.12;;;;-57
2020/09/25 10:31:30;;;;;;;2.71;1.30;;;;;;;20.79;65.83;98896.95;;;;-56
2020/09/25 10:34:30;;;;;;;4.89;1.46;;;;;;;20.80;65.88;98899.23;;;;-56
2020/09/25 10:37:30;;;;;;;2.85;1.64;;;;;;;20.79;65.82;98888.75;;;;-54
2020/09/25 10:40:31;;;;;;;5.09;1.99;;;;;;;20.80;65.85;98887.42;;;;-54
2020/09/25 10:43:30;;;;;;;5.62;2.19;;;;;;;20.81;65.80;98880.08;;;;-56
2020/09/25 10:46:30;;;;;;;5.73;2.48;;;;;;;20.83;65.74;98891.16;;;;-53
2020/09/25 10:49:30;;;;;;;5.57;2.21;;;;;;;20.82;65.82;98908.56;;;;-52
2020/09/25 10:52:30;;;;;;;4.37;2.43;;;;;;;20.81;65.70;98908.23;;;;-53
2020/09/25 10:55:30;;;;;;;5.83;2.53;;;;;;;20.80;65.73;98901.83;;;;-53
2020/09/25 10:58:30;;;;;;;4.81;2.23;;;;;;;20.80;65.74;98902.66;;;;-53
2020/09/25 11:01:30;;;;;;;5.47;2.46;;;;;;;20.79;65.66;98896.81;;;;-53
2020/09/25 11:04:30;;;;;;;4.86;2.35;;;;;;;20.78;65.74;98883.88;;;;-53
2020/09/25 11:07:30;;;;;;;6.84;2.37;;;;;;;20.78;65.71;98871.11;;;;-53
2020/09/25 11:10:30;;;;;;;5.76;2.35;;;;;;;20.78;65.62;98864.13;;;;-55
2020/09/25 11:13:30;;;;;;;6.21;2.48;;;;;;;20.77;65.71;98863.48;;;;-53
2020/09/25 11:16:30;;;;;;;5.22;2.39;;;;;;;20.75;65.75;98855.06;;;;-54
2020/09/25 11:19:30;;;;;;;5.07;2.13;;;;;;;20.76;65.71;98853.09;;;;-51
2020/09/25 11:22:30;;;;;;;4.10;2.27;;;;;;;20.76;65.58;98848.78;;;;-53
2020/09/25 11:25:30;;;;;;;4.22;2.03;;;;;;;20.75;65.63;98852.22;;;;-53
2020/09/25 11:28:30;;;;;;;5.11;2.29;;;;;;;20.75;65.51;98847.66;;;;-54
2020/09/25 11:31:30;;;;;;;4.27;2.01;;;;;;;20.75;65.58;98851.49;;;;-54
2020/09/25 11:34:30;;;;;;;5.22;2.06;;;;;;;20.74;65.50;98846.53;;;;-54
2020/09/25 11:37:30;;;;;;;4.39;2.10;;;;;;;20.74;65.54;98836.44;;;;-54
2020/09/25 11:40:30;;;;;;;5.98;2.33;;;;;;;20.73;65.56;98830.28;;;;-54
2020/09/25 11:43:30;;;;;;;5.59;2.41;;;;;;;20.74;65.53;98830.83;;;;-54
2020/09/25 11:46:30;;;;;;;5.56;2.15;;;;;;;20.73;65.55;98840.05;;;;-53
2020/09/25 11:49:30;;;;;;;3.89;2.03;;;;;;;20.74;65.55;98849.56;;;;-54
2020/09/25 11:52:30;;;;;;;4.23;2.22;;;;;;;20.74;65.54;98857.95;;;;-54
2020/09/25 11:55:30;;;;;;;3.58;2.05;;;;;;;20.73;65.54;98861.31;;;;-53
2020/09/25 11:58:30;;;;;;;3.53;1.91;;;;;;;20.72;65.55;98855.30;;;;-53
2020/09/25 12:01:30;;;;;;;4.57;2.10;;;;;;;20.71;65.60;98849.39;;;;-53
2020/09/25 12:04:30;;;;;;;3.93;2.03;;;;;;;20.72;65.60;98841.97;;;;-54
2020/09/25 12:07:30;;;;;;;4.21;2.25;;;;;;;20.71;65.51;98836.78;;;;-51
2020/09/25 12:10:30;;;;;;;4.64;1.98;;;;;;;20.71;65.54;98836.36;;;;-51
2020/09/25 12:13:30;;;;;;;3.57;1.95;;;;;;;20.71;65.58;98833.75;;;;-51
2020/09/25 12:16:30;;;;;;;4.72;2.23;;;;;;;20.70;65.57;98836.14;;;;-51
2020/09/25 12:19:30;;;;;;;3.99;1.99;;;;;;;20.69;65.58;98834.86;;;;-51
2020/09/25 12:22:30;;;;;;;4.53;2.08;;;;;;;20.70;65.53;98835.39;;;;-51
2020/09/25 12:25:30;;;;;;;4.23;2.09;;;;;;;20.69;65.59;98840.72;;;;-51
2020/09/25 12:28:30;;;;;;;2.68;1.80;;;;;;;20.69;65.57;98834.39;;;;-51
2020/09/25 12:31:30;;;;;;;3.17;1.90;;;;;;;20.69;65.54;98826.16;;;;-51
2020/09/25 12:34:30;;;;;;;6.17;1.91;;;;;;;20.70;65.58;98822.20;;;;-52
2020/09/25 12:37:30;;;;;;;3.79;2.08;;;;;;;20.69;65.67;98823.87;;;;-47
2020/09/25 12:40:30;;;;;;;3.95;1.97;;;;;;;20.68;65.72;98826.56;;;;-52
2020/09/25 12:43:30;;;;;;;3.20;1.83;;;;;;;20.70;65.78;98816.44;;;;-50
2020/09/25 12:46:30;;;;;;;4.53;1.83;;;;;;;20.72;65.83;98804.11;;;;-45
2020/09/25 12:49:30;;;;;;;3.59;1.98;;;;;;;20.72;65.88;98791.34;;;;-45
2020/09/25 12:52:30;;;;;;;4.57;2.08;;;;;;;20.73;65.88;98786.09;;;;-47
2020/09/25 12:55:30;;;;;;;3.68;2.00;;;;;;;20.73;65.86;98780.08;;;;-51
2020/09/25 12:58:30;;;;;;;4.76;1.90;;;;;;;20.75;65.92;98780.57;;;;-50
2020/09/25 13:01:30;;;;;;;3.47;1.82;;;;;;;20.75;65.96;98789.03;;;;-52
2020/09/25 13:04:30;;;;;;;4.93;1.82;;;;;;;20.76;65.99;98798.14;;;;-44
2020/09/25 13:07:30;;;;;;;4.42;1.91;;;;;;;20.77;65.94;98808.14;;;;-52
2020/09/25 13:10:30;;;;;;;3.34;1.95;;;;;;;20.79;65.96;98818.14;;;;-52
2020/09/25 13:13:30;;;;;;;3.44;1.81;;;;;;;20.81;65.90;98809.97;;;;-50
2020/09/25 13:16:30;;;;;;;3.19;1.61;;;;;;;20.82;65.88;98806.97;;;;-52
2020/09/25 13:19:30;;;;;;;3.78;1.83;;;;;;;20.83;65.96;98793.89;;;;-50
2020/09/25 13:22:30;;;;;;;4.08;1.99;;;;;;;20.83;65.76;98790.03;;;;-52
2020/09/25 13:25:30;;;;;;;3.27;1.99;;;;;;;20.83;65.97;98785.83;;;;-49
2020/09/25 13:28:30;;;;;;;3.33;2.00;;;;;;;20.84;65.91;98791.60;;;;-52
2020/09/25 13:31:30;;;;;;;4.39;2.01;;;;;;;20.83;65.93;98794.30;;;;-51
2020/09/25 13:34:30;;;;;;;3.69;1.81;;;;;;;20.83;65.94;98800.88;;;;-52
2020/09/25 13:37:30;;;;;;;4.17;1.87;;;;;;;20.83;66.09;98796.50;;;;-49
2020/09/25 13:40:30;;;;;;;2.45;1.61;;;;;;;20.83;66.12;98793.89;;;;-52
2020/09/25 13:43:30;;;;;;;2.25;1.70;;;;;;;20.84;66.13;98783.67;;;;-48
2020/09/25 13:46:30;;;;;;;6.43;2.02;;;;;;;20.85;66.23;98779.23;;;;-51
2020/09/25 13:49:30;;;;;;;8.25;2.03;;;;;;;20.88;66.08;98771.52;;;;-55
2020/09/25 13:52:30;;;;;;;8.52;2.20;;;;;;;20.86;66.13;98763.76;;;;-49
2020/09/25 13:55:30;;;;;;;5.80;1.93;;;;;;;20.86;66.16;98770.29;;;;-54
2020/09/25 13:58:30;;;;;;;8.55;1.93;;;;;;;20.86;66.14;98767.99;;;;-52
2020/09/25 14:01:30;;;;;;;5.96;2.09;;;;;;;20.90;66.16;98770.11;;;;-49
2020/09/25 14:04:30;;;;;;;5.88;1.84;;;;;;;20.89;66.08;98766.69;;;;-49
2020/09/25 14:07:30;;;;;;;3.99;1.87;;;;;;;20.91;66.06;98766.91;;;;-52
2020/09/25 14:10:30;;;;;;;5.41;1.82;;;;;;;20.89;66.12;98763.17;;;;-48
2020/09/25 14:13:30;;;;;;;4.05;2.01;;;;;;;20.91;65.98;98771.03;;;;-51
2020/09/25 14:16:30;;;;;;;6.91;1.98;;;;;;;20.90;66.14;98765.55;;;;-51
2020/09/25 14:19:30;;;;;;;3.79;1.81;;;;;;;20.87;66.17;98762.09;;;;-51
2020/09/25 14:22:30;;;;;;;5.99;1.87;;;;;;;20.86;66.12;98765.82;;;;-51
2020/09/25 14:25:30;;;;;;;5.78;1.80;;;;;;;20.85;66.16;98761.67;;;;-51
2020/09/25 14:28:30;;;;;;;4.99;1.73;;;;;;;20.85;66.13;98764.61;;;;-51
2020/09/25 14:31:30;;;;;;;3.51;1.73;;;;;;;20.85;66.06;98763.39;;;;-51
2020/09/25 14:34:30;;;;;;;7.81;1.87;;;;;;;20.84;65.94;98762.69;;;;-50
2020/09/25 14:37:30;;;;;;;5.05;1.77;;;;;;;20.83;66.06;98766.19;;;;-50
2020/09/25 14:40:30;;;;;;;4.89;2.02;;;;;;;20.84;65.99;98767.02;;;;-50
2020/09/25 14:43:30;;;;;;;4.18;1.82;;;;;;;20.82;65.93;98768.03;;;;-51
2020/09/25 14:46:30;;;;;;;3.99;1.75;;;;;;;20.83;65.89;98768.82;;;;-50
2020/09/25 14:49:30;;;;;;;5.11;1.86;;;;;;;20.82;65.87;98771.21;;;;-49
2020/09/25 14:52:32;;;;;;;2.90;1.67;;;;;;;20.82;65.92;98771.30;;;;-50
2020/09/25 14:55:30;;;;;;;4.37;1.71;;;;;;;20.81;65.82;98769.99;;;;-57
2020/09/25 14:58:30;;;;;;;7.69;2.05;;;;;;;20.82;65.93;98775.09;;;;-58
2020/09/25 15:01:31;;;;;;;3.03;1.77;;;;;;;20.82;65.88;98776.35;;;;-58
2020/09/25 15:04:30;;;;;;;5.39;1.80;;;;;;;20.81;65.86;98770.22;;;;-58
2020/09/25 15:07:30;;;;;;;5.29;1.79;;;;;;;20.83;65.84;98773.94;;;;-55
2020/09/25 15:10:30;;;;;;;7.33;2.03;;;;;;;20.84;65.85;98771.88;;;;-54
2020/09/25 15:13:30;;;;;;;8.25;1.90;;;;;;;20.84;65.81;98762.69;;;;-56
2020/09/25 15:16:30;;;;;;;4.52;1.71;;;;;;;20.85;65.79;98759.72;;;;-56
2020/09/25 15:19:30;;;;;;;3.83;1.61;;;;;;;20.86;65.86;98761.27;;;;-56
2020/09/25 15:22:30;;;;;;;4.43;1.89;;;;;;;20.86;65.87;98758.06;;;;-55
2020/09/25 15:25:31;;;;;;;5.13;1.85;;;;;;;20.88;65.77;98762.02;;;;-54
2020/09/25 15:28:30;;;;;;;4.09;1.70;;;;;;;20.88;65.96;98763.56;;;;-49
2020/09/25 15:31:30;;;;;;;2.13;1.49;;;;;;;20.88;65.86;98759.08;;;;-50
2020/09/25 15:34:30;;;;;;;3.03;1.74;;;;;;;20.88;66.00;98761.12;;;;-50
2020/09/25 15:37:30;;;;;;;3.09;1.54;;;;;;;20.90;65.99;98759.83;;;;-52
2020/09/25 15:40:30;;;;;;;2.63;1.50;;;;;;;20.90;65.99;98759.69;;;;-59
2020/09/25 15:43:30;;;;;;;3.45;1.55;;;;;;;20.89;66.03;98751.56;;;;-58
2020/09/25 15:46:30;;;;;;;4.15;1.71;;;;;;;20.89;66.01;98750.33;;;;-53
2020/09/25 15:49:30;;;;;;;4.97;1.80;;;;;;;20.88;66.09;98746.86;;;;-58
2020/09/25 15:52:30;;;;;;;3.37;1.65;;;;;;;20.89;66.08;98747.87;;;;-50
2020/09/25 15:55:30;;;;;;;5.04;1.63;;;;;;;20.89;66.15;98742.42;;;;-52
2020/09/25 15:58:30;;;;;;;3.14;1.53;;;;;;;20.91;66.23;98745.16;;;;-53
2020/09/25 16:01:30;;;;;;;2.95;1.63;;;;;;;20.90;66.15;98747.62;;;;-57
2020/09/25 16:04:30;;;;;;;3.64;1.54;;;;;;;20.93;66.07;98742.09;;;;-59
2020/09/25 16:07:30;;;;;;;3.59;1.62;;;;;;;20.93;66.12;98745.19;;;;-54
2020/09/25 16:10:30;;;;;;;2.41;1.53;;;;;;;20.92;66.12;98755.70;;;;-54
2020/09/25 16:13:30;;;;;;;2.61;1.67;;;;;;;20.93;66.09;98752.08;;;;-53
2020/09/25 16:16:30;;;;;;;2.55;1.53;;;;;;;20.93;66.13;98753.41;;;;-53
2020/09/25 16:19:30;;;;;;;2.05;1.51;;;;;;;20.93;66.21;98756.97;;;;-52
2020/09/25 16:22:30;;;;;;;2.98;1.45;;;;;;;20.93;66.09;98761.69;;;;-53
2020/09/25 16:25:30;;;;;;;2.45;1.50;;;;;;;20.94;66.11;98764.37;;;;-50
2020/09/25 16:28:30;;;;;;;2.66;1.64;;;;;;;20.93;66.10;98759.98;;;;-54
2020/09/25 16:31:30;;;;;;;2.22;1.51;;;;;;;20.93;66.14;98756.98;;;;-50
2020/09/25 16:34:30;;;;;;;4.21;1.51;;;;;;;20.93;66.16;98758.27;;;;-53
2020/09/25 16:37:30;;;;;;;2.43;1.51;;;;;;;20.95;66.11;98753.93;;;;-52
2020/09/25 16:40:30;;;;;;;3.18;1.60;;;;;;;20.95;66.20;98750.34;;;;-54
2020/09/25 16:43:30;;;;;;;3.86;1.50;;;;;;;20.96;66.22;98749.66;;;;-48
2020/09/25 16:46:30;;;;;;;2.27;1.51;;;;;;;20.98;66.12;98753.67;;;;-47
2020/09/25 16:49:30;;;;;;;3.27;1.56;;;;;;;20.98;66.09;98758.55;;;;-48
2020/09/25 16:52:30;;;;;;;1.68;1.25;;;;;;;20.97;66.14;98755.09;;;;-48
2020/09/25 16:55:30;;;;;;;3.61;1.50;;;;;;;20.97;66.18;98750.78;;;;-52